Time;durP1;ratioP1;P1;durP2;ratioP2;P2;SDS_P1;SDS_P2;PMS_P1;PMS_P2;Temp;Humidity;BMP_temperature;BMP_pressure;BME280_temperature;BME280_humidity;BME280_pressure;Samples;Min_cycle;Max_cycle;Signal;HPM_P1;HPM_P2
2021/05/28 00:01:16;;;;;;;6.38;3.30;;;;;;;12.25;61.11;100391.34;4884884;28;96917;-82
2021/05/28 00:03:42;;;;;;;6.45;3.40;;;;;;;12.18;61.20;100388.06;4853345;28;100105;-83
2021/05/28 00:06:08;;;;;;;9.27;3.88;;;;;;;12.23;60.97;100393.16;4868140;28;99286;-82
2021/05/28 00:08:33;;;;;;;7.38;3.30;;;;;;;12.22;61.56;100396.72;4885431;28;96605;-81
2021/05/28 00:10:59;;;;;;;5.63;3.40;;;;;;;12.11;61.69;100393.66;4885005;28;97213;-82
2021/05/28 00:13:25;;;;;;;6.90;3.13;;;;;;;12.04;61.97;100397.44;4883457;28;99303;-82
2021/05/28 00:15:50;;;;;;;4.15;2.97;;;;;;;11.98;62.18;100398.53;4853521;28;99369;-83
2021/05/28 00:18:16;;;;;;;4.10;2.95;;;;;;;11.95;61.97;100394.22;4887326;28;96772;-81
2021/05/28 00:20:42;;;;;;;5.10;3.35;;;;;;;11.96;62.09;100400.38;4889766;28;97201;-80
2021/05/28 00:23:07;;;;;;;6.63;2.95;;;;;;;11.96;62.22;100395.13;4873433;28;99042;-80
2021/05/28 00:25:33;;;;;;;5.80;2.95;;;;;;;11.90;62.02;100396.22;4872081;28;99173;-82
2021/05/28 00:27:58;;;;;;;6.30;3.17;;;;;;;11.91;62.02;100400.53;4908616;28;97490;-79
2021/05/28 00:30:24;;;;;;;6.32;2.95;;;;;;;11.92;61.96;100396.13;4875589;28;96606;-80
2021/05/28 00:32:50;;;;;;;5.65;3.05;;;;;;;11.85;62.20;100398.16;4876823;28;99824;-79
2021/05/28 00:35:17;;;;;;;6.07;2.80;;;;;;;11.86;62.77;100401.63;4881744;28;99320;-81
2021/05/28 00:37:43;;;;;;;9.43;3.08;;;;;;;11.86;62.29;100399.84;4914326;28;95978;-79
2021/05/28 00:40:09;;;;;;;6.07;3.65;;;;;;;11.92;62.30;100402.25;4900492;28;96609;-80
2021/05/28 00:42:34;;;;;;;7.70;3.58;;;;;;;11.90;61.93;100401.47;4884580;28;99205;-81
2021/05/28 00:45:00;;;;;;;5.82;3.53;;;;;;;11.88;61.89;100398.03;4902461;28;99288;-79
2021/05/28 00:47:26;;;;;;;6.95;3.75;;;;;;;11.89;62.18;100398.88;4902795;28;96461;-80
2021/05/28 00:49:51;;;;;;;8.80;3.47;;;;;;;11.96;61.48;100397.75;4886657;28;96678;-80
2021/05/28 00:52:18;;;;;;;10.68;3.67;;;;;;;11.96;61.57;100403.00;4915256;28;96586;-79
2021/05/28 00:54:44;;;;;;;8.73;3.88;;;;;;;11.91;61.64;100402.31;4887289;28;99342;-80
2021/05/28 00:57:10;;;;;;;7.32;3.53;;;;;;;11.98;61.28;100403.78;4898770;28;96884;-80
2021/05/28 00:59:38;;;;;;;13.80;3.22;;;;;;;11.91;61.46;100402.31;4900886;28;95885;-81
2021/05/28 01:02:05;;;;;;;7.20;3.67;;;;;;;11.75;61.91;100386.22;4881715;28;99387;-80
2021/05/28 01:04:30;;;;;;;8.57;3.75;;;;;;;11.79;61.79;100407.09;4900002;28;99061;-80
2021/05/28 01:06:56;;;;;;;13.80;4.05;;;;;;;11.75;62.11;100404.63;4884311;28;96301;-79
2021/05/28 01:09:21;;;;;;;6.80;3.20;;;;;;;11.75;61.62;100397.63;4897592;28;96205;-80
2021/05/28 01:11:47;;;;;;;11.32;4.43;;;;;;;11.66;61.84;100400.56;4883324;28;99277;-79
2021/05/28 01:14:13;;;;;;;11.73;4.50;;;;;;;11.72;62.02;100394.22;4888527;28;99260;-82
2021/05/28 01:16:38;;;;;;;9.38;3.97;;;;;;;11.70;62.15;100391.66;4889768;28;96363;-80
2021/05/28 01:19:04;;;;;;;11.45;3.95;;;;;;;11.72;62.04;100396.84;4917868;28;96851;-80
2021/05/28 01:21:30;;;;;;;6.25;3.33;;;;;;;11.69;62.05;100389.06;4920556;28;96431;-81
2021/05/28 01:23:56;;;;;;;8.20;3.72;;;;;;;11.60;62.35;100385.03;4905318;28;99611;-79
2021/05/28 01:26:21;;;;;;;9.45;3.47;;;;;;;11.54;62.40;100394.00;4889587;28;96263;-79
2021/05/28 01:28:47;;;;;;;6.90;3.20;;;;;;;11.60;62.56;100387.66;4921809;28;96415;-79
2021/05/28 01:31:13;;;;;;;6.60;3.20;;;;;;;11.53;62.45;100396.69;4921693;28;99228;-79
2021/05/28 01:33:43;;;;;;;9.85;3.53;;;;;;;11.53;62.78;100394.06;4906143;28;99293;-79
2021/05/28 01:36:10;;;;;;;9.20;3.40;;;;;;;11.47;62.67;100395.13;4906655;28;95924;-80
2021/05/28 01:38:35;;;;;;;7.82;3.53;;;;;;;11.41;63.07;100394.50;4909642;28;96505;-80
2021/05/28 01:41:01;;;;;;;6.07;3.63;;;;;;;11.37;63.41;100395.53;4928407;28;99265;-79
2021/05/28 01:43:27;;;;;;;8.48;2.83;;;;;;;11.28;63.95;100391.44;4912572;28;98978;-80
2021/05/28 01:45:52;;;;;;;7.57;3.40;;;;;;;11.25;63.81;100402.94;4929508;28;95846;-81
2021/05/28 01:48:18;;;;;;;4.75;2.97;;;;;;;11.25;63.40;100405.56;4928811;28;95971;-82
2021/05/28 01:50:44;;;;;;;5.95;2.67;;;;;;;11.14;64.15;100410.34;4928110;28;99871;-80
2021/05/28 01:53:29;;;;;;;10.60;3.30;;;;;;;11.19;64.13;100412.81;4945109;28;96619;-81
2021/05/28 01:55:55;;;;;;;5.07;3.00;;;;;;;11.17;63.96;100415.50;4930202;28;96529;-81
2021/05/28 01:58:22;;;;;;;4.53;3.00;;;;;;;11.13;63.84;100411.25;5070272;23;96263;-83
2021/05/28 02:00:51;;;;;;;4.38;3.35;;;;;;;11.25;62.92;100391.56;4925937;28;96630;-84
2021/05/28 02:03:25;;;;;;;4.35;3.30;;;;;;;11.51;62.27;100411.66;4894317;28;99186;-83
2021/05/28 02:05:51;;;;;;;4.55;3.28;;;;;;;11.32;62.70;100400.97;4999485;23;96728;-84
2021/05/28 02:08:55;;;;;;;8.30;4.22;;;;;;;11.30;62.83;100436.94;4866846;29;96567;-82
2021/05/28 02:11:24;;;;;;;5.45;3.45;;;;;;;11.12;63.29;100417.44;4883104;29;96995;-84
2021/05/28 02:13:50;;;;;;;7.30;3.42;;;;;;;10.99;63.37;100416.13;4882745;29;96799;-84
2021/05/28 02:16:17;;;;;;;4.90;3.33;;;;;;;11.03;63.64;100425.63;4881523;29;96500;-83
2021/05/28 02:18:42;;;;;;;6.85;3.65;;;;;;;11.14;63.27;100412.09;4882397;29;96024;-84
2021/05/28 02:21:08;;;;;;;6.88;3.53;;;;;;;11.23;63.25;100419.69;4867448;29;96894;-83
2021/05/28 02:23:46;;;;;;;8.32;3.72;;;;;;;11.22;62.88;100410.06;4867279;28;96751;-85
2021/05/28 02:26:12;;;;;;;5.57;3.40;;;;;;;11.20;63.18;100414.50;4868924;28;96551;-85
2021/05/28 02:28:40;;;;;;;4.97;3.53;;;;;;;11.29;63.24;100406.31;4868608;29;96064;-83
2021/05/28 02:31:08;;;;;;;5.75;3.22;;;;;;;11.44;62.52;100413.66;4868469;28;99946;-85
2021/05/28 02:33:36;;;;;;;5.13;3.25;;;;;;;11.70;61.86;100422.38;4868548;28;99108;-83
2021/05/28 02:39:13;;;;;;;10.07;4.00;;;;;;;11.59;62.83;100430.63;5528879;23;98478;-83
2021/05/28 02:41:39;;;;;;;7.78;3.97;;;;;;;11.46;62.66;100418.84;4893785;28;99890;-84
2021/05/28 02:44:05;;;;;;;6.25;4.43;;;;;;;11.48;62.71;100417.88;4908370;28;99371;-84
2021/05/28 02:46:33;;;;;;;5.90;3.50;;;;;;;11.63;62.20;100421.72;4939834;28;96506;-84
2021/05/28 02:49:00;;;;;;;8.25;3.80;;;;;;;11.80;61.85;100442.13;4908766;28;96439;-84
2021/05/28 02:51:25;;;;;;;5.82;3.90;;;;;;;11.50;62.48;100426.56;4923972;28;99641;-83
2021/05/28 02:53:51;;;;;;;7.68;4.15;;;;;;;11.56;62.56;100433.38;4907773;28;99107;-84
2021/05/28 02:56:17;;;;;;;8.07;4.10;;;;;;;11.56;62.72;100436.00;4924232;28;96544;-83
2021/05/28 02:58:43;;;;;;;8.45;4.07;;;;;;;11.69;62.19;100441.66;4908164;28;96780;-84
2021/05/28 03:01:10;;;;;;;7.57;3.85;;;;;;;11.58;63.14;100436.81;4938636;28;96962;-83
2021/05/28 03:03:42;;;;;;;7.35;4.25;;;;;;;11.54;63.04;100433.41;4902050;28;96798;-84
2021/05/28 03:06:11;;;;;;;7.47;4.30;;;;;;;11.54;63.27;100436.06;4902346;28;96224;-84
2021/05/28 03:08:36;;;;;;;7.05;4.03;;;;;;;11.53;63.57;100436.97;4886976;28;96100;-82
2021/05/28 03:11:17;;;;;;;5.80;4.00;;;;;;;11.58;63.48;100428.94;4887258;28;96586;-83
2021/05/28 03:13:58;;;;;;;6.07;3.78;;;;;;;11.09;63.31;100344.81;4952917;23;96865;-84
2021/05/28 03:22:44;;;;;;;6.38;4.00;;;;;;;11.69;63.71;100441.66;5382283;23;98689;-84
2021/05/28 03:25:12;;;;;;;6.32;3.88;;;;;;;11.72;63.75;100442.44;4908401;28;99467;-84
2021/05/28 03:27:38;;;;;;;5.70;4.13;;;;;;;11.74;63.69;100435.31;4908364;28;96583;-84
2021/05/28 03:30:51;;;;;;;6.35;4.35;;;;;;;11.88;64.15;100453.25;4925057;28;96479;-84
2021/05/28 03:33:17;;;;;;;5.85;3.80;;;;;;;11.87;64.24;100443.66;4924129;28;98165;-84
2021/05/28 03:35:42;;;;;;;7.32;4.28;;;;;;;11.92;64.26;100444.34;4907317;28;99216;-84
2021/05/28 03:38:08;;;;;;;4.60;3.40;;;;;;;11.95;64.33;100432.84;4892423;28;96461;-84
2021/05/28 03:40:34;;;;;;;5.32;3.20;;;;;;;12.05;63.75;100443.91;4908523;28;95905;-84
2021/05/28 03:43:00;;;;;;;4.18;2.83;;;;;;;12.00;64.07;100441.44;4907571;28;99444;-83
2021/05/28 03:46:05;;;;;;;6.80;2.95;;;;;;;12.03;64.35;100461.50;4904553;28;97686;-84
2021/05/28 03:48:32;;;;;;;3.83;2.97;;;;;;;12.04;64.22;100461.44;4888651;28;95950;-84
2021/05/28 03:50:58;;;;;;;3.53;2.88;;;;;;;12.08;64.20;100454.28;4905977;28;96635;-84
2021/05/28 03:53:27;;;;;;;4.35;3.22;;;;;;;12.14;64.23;100462.81;4888928;28;97544;-82
2021/05/28 03:56:10;;;;;;;6.40;2.92;;;;;;;12.16;64.13;100471.50;4905304;28;96796;-84
2021/05/28 03:58:36;;;;;;;5.70;3.50;;;;;;;12.12;64.18;100462.00;4904308;28;96492;-83
2021/05/28 04:01:02;;;;;;;6.13;3.38;;;;;;;12.16;63.35;100463.63;4873773;28;96337;-84
2021/05/28 04:03:51;;;;;;;5.25;3.28;;;;;;;12.26;63.96;100464.09;4873198;28;99344;-83
2021/05/28 04:11:40;;;;;;;3.30;3.00;;;;;;;12.34;63.38;100467.31;5645476;23;98101;-84
2021/05/28 04:14:05;;;;;;;4.40;3.03;;;;;;;12.39;63.55;100469.75;4884283;28;99848;-84
2021/05/28 04:16:31;;;;;;;5.43;2.85;;;;;;;12.37;63.96;100469.81;4884544;28;99413;-84
2021/05/28 04:18:56;;;;;;;7.68;3.50;;;;;;;12.35;64.11;100468.16;4885063;28;97084;-83
2021/05/28 04:21:22;;;;;;;4.30;3.17;;;;;;;12.40;63.43;100464.44;4866852;28;97062;-82
2021/05/28 04:23:48;;;;;;;7.90;3.03;;;;;;;12.43;63.27;100466.09;4864010;28;100092;-82
2021/05/28 04:26:13;;;;;;;5.80;3.20;;;;;;;12.42;63.99;100473.13;4873590;28;99340;-83
2021/05/28 04:28:39;;;;;;;4.60;3.30;;;;;;;12.42;63.71;100473.13;4864322;28;97328;-83
2021/05/28 04:31:04;;;;;;;4.25;2.95;;;;;;;12.42;63.67;100480.16;4883223;28;96721;-83
2021/05/28 04:33:30;;;;;;;4.18;3.03;;;;;;;12.44;63.72;100478.31;4849460;28;99375;-84
2021/05/28 04:35:56;;;;;;;5.30;3.40;;;;;;;12.46;63.34;100469.44;4850391;28;99581;-83
2021/05/28 04:38:22;;;;;;;5.35;3.20;;;;;;;12.39;63.65;100470.63;4882580;28;96590;-81
2021/05/28 04:40:48;;;;;;;5.82;3.72;;;;;;;12.41;63.74;100479.28;4883555;28;98294;-83
2021/05/28 04:43:14;;;;;;;7.68;3.55;;;;;;;12.43;63.79;100474.00;4902609;28;96916;-82
2021/05/28 04:45:40;;;;;;;5.25;3.72;;;;;;;12.47;63.73;100478.19;4881231;28;99283;-84
2021/05/28 04:48:06;;;;;;;11.45;3.95;;;;;;;12.55;63.49;100481.41;4866521;28;96946;-84
2021/05/28 04:50:32;;;;;;;5.00;3.53;;;;;;;12.56;63.82;100488.38;4898876;28;96913;-83
2021/05/28 04:52:59;;;;;;;5.22;3.42;;;;;;;12.64;63.61;100485.44;4870684;28;99436;-85
2021/05/28 04:55:26;;;;;;;8.80;3.78;;;;;;;12.65;63.41;100484.50;4863999;28;99205;-82
2021/05/28 04:57:52;;;;;;;9.48;4.03;;;;;;;12.71;63.78;100494.78;4866950;28;97244;-83
2021/05/28 05:00:19;;;;;;;9.45;3.92;;;;;;;12.88;63.01;100487.06;4859406;28;97171;-84
2021/05/28 05:02:44;;;;;;;8.18;4.50;;;;;;;12.99;62.86;100493.69;4860048;28;99921;-83
2021/05/28 05:05:11;;;;;;;6.60;3.70;;;;;;;13.02;62.52;100493.56;4860783;28;97106;-85
2021/05/28 05:07:36;;;;;;;8.88;3.75;;;;;;;13.11;62.33;100493.19;4868843;28;97049;-85
2021/05/28 05:10:03;;;;;;;5.80;3.50;;;;;;;13.16;62.73;100493.00;4862908;28;97000;-85
2021/05/28 05:12:29;;;;;;;4.40;3.33;;;;;;;13.28;61.99;100496.00;4861313;28;101289;-83
2021/05/28 05:14:55;;;;;;;11.13;4.05;;;;;;;13.37;61.92;100500.03;4863251;28;101345;-85
2021/05/28 05:17:21;;;;;;;5.03;3.72;;;;;;;13.45;61.75;100489.16;4879502;28;97090;-85
2021/05/28 05:19:46;;;;;;;7.93;3.53;;;;;;;13.54;61.79;100486.09;4895161;28;97180;-84
2021/05/28 05:22:12;;;;;;;15.68;4.38;;;;;;;13.66;61.23;100495.25;4862243;28;101854;-84
2021/05/28 05:24:37;;;;;;;7.95;3.45;;;;;;;13.82;61.39;100491.03;4862378;28;101190;-85
2021/05/28 05:27:03;;;;;;;9.95;4.07;;;;;;;13.85;61.29;100498.81;4879123;28;96910;-85
2021/05/28 05:29:29;;;;;;;7.03;3.88;;;;;;;13.79;61.43;100502.56;4877239;28;97195;-83
2021/05/28 05:31:54;;;;;;;5.68;3.65;;;;;;;13.87;61.39;100494.31;4893794;28;102295;-84
2021/05/28 05:34:20;;;;;;;7.47;4.15;;;;;;;13.98;61.20;100494.69;4862578;28;101496;-84
2021/05/28 05:36:46;;;;;;;9.85;3.88;;;;;;;14.00;61.56;100495.47;4861847;28;97263;-85
2021/05/28 05:39:12;;;;;;;6.78;4.18;;;;;;;13.95;61.98;100499.25;4866948;28;97403;-85
2021/05/28 05:41:37;;;;;;;8.27;4.25;;;;;;;13.81;62.04;100498.06;4876617;28;98003;-85
2021/05/28 05:44:03;;;;;;;6.50;3.72;;;;;;;13.96;62.00;100493.03;4877379;28;97787;-84
2021/05/28 05:46:29;;;;;;;5.72;3.75;;;;;;;14.30;61.45;100494.97;4875407;28;97984;-83
2021/05/28 05:48:54;;;;;;;6.70;3.80;;;;;;;14.50;60.87;100494.06;4876448;28;96929;-85
2021/05/28 05:51:20;;;;;;;6.32;3.90;;;;;;;14.56;61.01;100501.72;4893892;28;97587;-84
2021/05/28 05:53:46;;;;;;;5.57;4.00;;;;;;;14.61;60.50;100506.78;4877034;28;101867;-84
2021/05/28 05:56:11;;;;;;;5.22;3.85;;;;;;;14.59;60.79;100508.63;4878474;28;96790;-84
2021/05/28 05:58:37;;;;;;;5.80;3.95;;;;;;;14.60;61.28;100511.22;4894251;28;97419;-87
2021/05/28 06:01:03;;;;;;;5.43;4.63;;;;;;;14.58;61.23;100514.84;4876854;28;101234;-88
2021/05/28 06:03:29;;;;;;;6.13;4.53;;;;;;;14.42;61.92;100517.31;4894955;28;98067;-84
2021/05/28 06:05:56;;;;;;;5.35;4.53;;;;;;;14.49;61.61;100522.25;4878896;28;97124;-87
2021/05/28 06:08:22;;;;;;;5.43;4.20;;;;;;;14.52;61.30;100534.50;4863403;28;96872;-85
2021/05/28 06:10:50;;;;;;;5.15;4.07;;;;;;;14.53;61.52;100530.06;4876333;28;100373;-87
2021/05/28 06:13:15;;;;;;;7.55;4.40;;;;;;;14.48;61.94;100532.88;4894294;28;97347;-86
2021/05/28 06:15:41;;;;;;;5.53;4.45;;;;;;;14.41;61.43;100534.09;4864153;28;97582;-88
2021/05/28 06:18:06;;;;;;;5.55;4.63;;;;;;;14.37;61.87;100535.16;4892062;28;97034;-87
2021/05/28 06:20:32;;;;;;;6.75;4.43;;;;;;;14.49;61.23;100535.47;4874905;28;100348;-85
2021/05/28 06:22:58;;;;;;;4.90;3.63;;;;;;;14.78;60.92;100530.63;4874879;28;102083;-87
2021/05/28 06:25:24;;;;;;;6.47;4.20;;;;;;;15.35;59.59;100533.94;4876002;28;97027;-88
2021/05/28 06:27:50;;;;;;;7.45;3.95;;;;;;;15.46;59.47;100538.69;4875221;28;97628;-87
2021/05/28 06:30:16;;;;;;;7.80;4.35;;;;;;;15.32;59.69;100538.53;4858929;28;100671;-87
2021/05/28 06:32:41;;;;;;;6.10;4.50;;;;;;;15.14;60.01;100542.97;4873004;28;100807;-86
2021/05/28 06:35:07;;;;;;;6.85;4.55;;;;;;;15.06;60.43;100539.84;4874915;28;97293;-87
2021/05/28 06:37:33;;;;;;;5.80;4.40;;;;;;;15.05;60.41;100538.13;4859296;28;97111;-84
2021/05/28 06:39:59;;;;;;;4.95;3.88;;;;;;;15.16;60.09;100543.75;4859262;28;101490;-87
2021/05/28 06:42:25;;;;;;;5.88;4.30;;;;;;;16.48;56.49;100534.22;4859815;28;99885;-87
2021/05/28 06:44:50;;;;;;;6.10;4.43;;;;;;;16.26;56.96;100530.13;4869231;28;97303;-87
2021/05/28 06:47:17;;;;;;;5.45;4.28;;;;;;;16.08;57.54;100539.03;4874956;28;97509;-86
2021/05/28 06:49:43;;;;;;;6.70;4.28;;;;;;;16.10;57.45;100538.97;4865827;28;101843;-86
2021/05/28 06:52:09;;;;;;;5.85;4.60;;;;;;;15.84;57.92;100527.97;4893933;28;98292;-86
2021/05/28 06:54:35;;;;;;;8.13;4.82;;;;;;;15.38;58.81;100527.66;4859031;28;97301;-85
2021/05/28 06:57:01;;;;;;;7.28;4.45;;;;;;;15.35;59.28;100527.81;4875160;28;96908;-86
2021/05/28 06:59:26;;;;;;;8.27;3.70;;;;;;;15.49;59.26;100546.47;4859268;28;98497;-87
2021/05/28 07:01:54;;;;;;;6.45;4.15;;;;;;;15.34;58.53;100540.19;4859537;28;101443;-87
2021/05/28 07:04:19;;;;;;;9.18;3.78;;;;;;;15.85;58.10;100542.88;4870569;28;96791;-87
2021/05/28 07:06:48;;;;;;;11.68;4.68;;;;;;;16.06;57.79;100531.19;4874014;28;97056;-88
2021/05/28 07:09:13;;;;;;;4.95;3.88;;;;;;;16.39;57.02;100543.53;4858100;28;100691;-87
2021/05/28 07:11:39;;;;;;;7.00;4.47;;;;;;;16.51;56.77;100544.66;4889036;28;97430;-87
2021/05/28 07:14:05;;;;;;;8.07;3.72;;;;;;;16.58;56.42;100534.56;4874339;28;96926;-83
2021/05/28 07:16:32;;;;;;;4.30;3.47;;;;;;;17.02;55.19;100555.13;4874701;28;97187;-88
2021/05/28 07:18:58;;;;;;;5.10;3.65;;;;;;;20.70;48.21;100541.97;4861131;28;100910;-88
2021/05/28 07:21:27;;;;;;;5.07;3.13;;;;;;;20.39;48.20;100538.84;4862424;28;101494;-86
2021/05/28 07:23:53;;;;;;;5.78;3.38;;;;;;;20.62;47.75;100534.53;4894201;28;97307;-86
2021/05/28 07:26:19;;;;;;;4.97;3.80;;;;;;;20.99;45.97;100543.34;4862794;28;96895;-85
2021/05/28 07:28:45;;;;;;;3.60;3.22;;;;;;;20.03;48.63;100542.28;4878359;28;100789;-85
2021/05/28 07:31:11;;;;;;;4.10;2.50;;;;;;;19.64;49.06;100542.25;4879622;28;98066;-86
2021/05/28 07:33:38;;;;;;;5.90;2.80;;;;;;;19.08;49.64;100540.72;4863449;28;96836;-82
2021/05/28 07:36:04;;;;;;;3.40;2.65;;;;;;;19.19;49.09;100540.88;4879355;28;96989;-85
2021/05/28 07:38:31;;;;;;;6.22;5.63;;;;;;;19.80;48.42;100534.06;4863292;28;101292;-85
2021/05/28 07:40:56;;;;;;;6.00;5.50;;;;;;;19.64;48.79;100542.25;4878617;28;101502;-86
2021/05/28 07:43:22;;;;;;;7.82;5.60;;;;;;;19.31;49.31;100537.38;4863998;28;96567;-86
2021/05/28 07:45:51;;;;;;;5.50;5.00;;;;;;;19.46;48.04;100540.84;4891485;28;97000;-85
2021/05/28 07:48:20;;;;;;;9.65;8.85;;;;;;;19.85;47.41;100541.75;4878104;28;101226;-86
2021/05/28 07:50:48;;;;;;;3.97;2.50;;;;;;;22.48;43.19;100529.22;4878692;28;101302;-86
2021/05/28 07:53:15;;;;;;;3.15;2.85;;;;;;;22.74;41.74;100518.25;4877039;28;96722;-87
2021/05/28 07:55:41;;;;;;;3.97;2.83;;;;;;;21.54;44.20;100534.84;4875597;28;97710;-86
2021/05/28 07:58:07;;;;;;;5.75;2.63;;;;;;;20.53;45.57;100540.53;4860140;28;100421;-87
2021/05/28 08:00:33;;;;;;;3.88;2.47;;;;;;;20.65;45.52;100526.28;4866932;28;101287;-88
2021/05/28 08:02:59;;;;;;;4.18;2.85;;;;;;;20.25;45.45;100536.31;4870485;28;96781;-87
2021/05/28 08:05:25;;;;;;;4.65;2.22;;;;;;;23.12;41.26;100520.44;4891453;28;97115;-85
2021/05/28 08:07:51;;;;;;;7.70;5.03;;;;;;;22.18;43.30;100518.34;4888494;28;99472;-87
2021/05/28 08:10:16;;;;;;;4.45;2.53;;;;;;;23.75;40.13;100515.16;4878476;28;101329;-86
2021/05/28 08:12:42;;;;;;;5.07;2.92;;;;;;;23.21;41.66;100510.78;4865500;28;96759;-87
2021/05/28 08:15:08;;;;;;;5.35;2.70;;;;;;;21.69;42.28;100520.31;4874759;28;96916;-87
2021/05/28 08:17:33;;;;;;;2.90;2.50;;;;;;;20.60;44.53;100517.81;4857197;28;101788;-87
2021/05/28 08:19:59;;;;;;;5.25;2.35;;;;;;;20.06;45.72;100521.59;4867879;28;101373;-87
2021/05/28 08:22:24;;;;;;;6.35;2.33;;;;;;;19.53;47.38;100522.63;4871606;28;96892;-87
2021/05/28 08:24:50;;;;;;;5.20;2.00;;;;;;;19.13;48.69;100522.66;4861979;28;97005;-87
2021/05/28 08:27:17;;;;;;;3.92;1.73;;;;;;;18.94;48.62;100521.22;4862951;28;101613;-87
2021/05/28 08:29:43;;;;;;;5.57;1.90;;;;;;;19.08;49.15;100530.06;4877826;28;101486;-85
2021/05/28 08:32:09;;;;;;;2.95;1.92;;;;;;;19.52;47.73;100512.91;4893908;28;96856;-87
2021/05/28 08:34:35;;;;;;;2.47;1.90;;;;;;;19.42;47.45;100508.22;4881903;28;97014;-86
2021/05/28 08:37:00;;;;;;;5.00;2.63;;;;;;;19.10;48.18;100502.41;4877461;28;101256;-87
2021/05/28 08:39:26;;;;;;;3.03;1.90;;;;;;;18.72;49.58;100518.22;4864833;28;101726;-87
2021/05/28 08:41:53;;;;;;;6.15;2.40;;;;;;;18.34;50.70;100521.50;4852060;28;97293;-87
2021/05/28 08:44:23;;;;;;;4.40;2.75;;;;;;;18.23;50.74;100521.34;4878450;28;96941;-87
2021/05/28 08:46:49;;;;;;;5.90;3.42;;;;;;;18.00;51.05;100533.38;4890938;28;101728;-86
2021/05/28 08:49:15;;;;;;;6.13;4.80;;;;;;;17.95;51.81;100527.50;4869897;28;101447;-87
2021/05/28 08:51:40;;;;;;;7.68;5.13;;;;;;;18.06;52.12;100530.34;4877208;28;96926;-85
2021/05/28 08:54:06;;;;;;;5.63;5.03;;;;;;;18.24;51.97;100531.03;4861957;28;96954;-87
2021/05/28 08:56:32;;;;;;;10.00;4.43;;;;;;;18.38;51.87;100527.47;4879015;28;98213;-87
2021/05/28 08:58:58;;;;;;;5.75;5.15;;;;;;;18.30;51.51;100526.19;4876824;28;101417;-87
2021/05/28 09:01:23;;;;;;;6.00;2.55;;;;;;;18.16;51.93;100523.53;4887390;28;96622;-87
2021/05/28 09:03:58;;;;;;;5.47;2.60;;;;;;;18.03;52.35;100530.53;4880537;28;96863;-86
2021/05/28 09:06:24;;;;;;;9.38;2.00;;;;;;;19.49;47.63;100524.66;4849326;28;101929;-87
2021/05/28 09:08:49;;;;;;;3.67;1.35;;;;;;;19.87;47.21;100529.19;4880081;28;101648;-87
2021/05/28 09:11:17;;;;;;;3.90;1.52;;;;;;;19.64;47.65;100536.06;4888296;28;97108;-87
2021/05/28 09:13:43;;;;;;;2.13;1.33;;;;;;;19.38;47.40;100521.88;4903355;28;97193;-84
2021/05/28 09:16:10;;;;;;;3.22;1.70;;;;;;;19.52;46.80;100524.44;4887288;28;101567;-87
2021/05/28 09:18:45;;;;;;;4.65;1.70;;;;;;;20.20;46.33;100527.78;4879790;28;98135;-87
2021/05/28 09:21:13;;;;;;;4.63;1.95;;;;;;;20.89;46.32;100528.16;4857933;28;97106;-87
2021/05/28 09:23:38;;;;;;;2.85;1.77;;;;;;;21.27;45.60;100527.09;4873364;28;96963;-87
2021/05/28 09:26:09;;;;;;;3.90;1.75;;;;;;;22.14;43.63;100515.88;4879614;28;100618;-87
2021/05/28 09:28:45;;;;;;;1.83;1.30;;;;;;;22.67;43.39;100509.88;4880500;28;101446;-86
2021/05/28 09:31:16;;;;;;;22.25;20.65;;;;;;;22.26;43.89;100510.56;4865023;28;97031;-86
2021/05/28 09:33:49;;;;;;;;;;;;;;;21.30;43.88;100530.38;4897251;28;97207;-85
2021/05/28 09:36:17;;;;;;;5.10;1.60;;;;;;;21.13;44.38;100528.97;4896047;28;100541;-87
2021/05/28 09:39:04;;;;;;;3.72;1.90;;;;;;;21.01;44.72;100525.41;4876704;28;100018;-84
2021/05/28 09:41:45;;;;;;;2.75;1.60;;;;;;;20.91;44.14;100531.53;4886910;28;96631;-87
2021/05/28 09:44:22;;;;;;;3.78;1.77;;;;;;;20.62;45.19;100526.53;4880344;28;96753;-85
2021/05/28 09:47:08;;;;;;;2.30;1.70;;;;;;;20.60;44.68;100528.47;4885695;28;101567;-86
2021/05/28 09:49:38;;;;;;;3.42;1.67;;;;;;;20.55;43.98;100525.28;4887949;28;97244;-86
2021/05/28 09:52:16;;;;;;;4.50;1.80;;;;;;;20.43;44.80;100529.66;4881080;28;96743;-86
2021/05/28 09:55:13;;;;;;;2.53;1.88;;;;;;;20.39;44.52;100528.19;4877295;28;97419;-87
2021/05/28 09:57:49;;;;;;;1.50;1.40;;;;;;;20.26;45.23;100532.66;4883926;28;97245;-86
2021/05/28 10:00:33;;;;;;;4.07;2.28;;;;;;;20.22;46.12;100528.53;4864323;28;101223;-86
2021/05/28 10:03:31;;;;;;;4.57;1.90;;;;;;;20.08;45.62;100525.00;4867368;28;96985;-86
2021/05/28 10:05:58;;;;;;;2.92;1.42;;;;;;;19.96;46.27;100520.56;4844415;28;96800;-87
2021/05/28 10:08:25;;;;;;;1.70;1.17;;;;;;;20.03;46.62;100528.97;4890379;28;98780;-87
2021/05/28 10:10:53;;;;;;;1.50;1.17;;;;;;;20.11;46.38;100529.28;4878128;28;101471;-86
2021/05/28 10:13:21;;;;;;;3.42;1.58;;;;;;;19.86;46.06;100524.81;4861078;28;96716;-86
2021/05/28 10:15:49;;;;;;;2.28;1.20;;;;;;;19.87;46.68;100527.38;4872645;28;97172;-84
2021/05/28 10:18:16;;;;;;;6.70;1.70;;;;;;;19.87;46.88;100529.19;4863403;28;101494;-86
2021/05/28 10:20:44;;;;;;;3.47;1.30;;;;;;;19.97;46.16;100519.59;4860596;28;100236;-86
2021/05/28 10:23:11;;;;;;;3.85;1.42;;;;;;;20.01;45.46;100523.75;4864592;28;96925;-87
2021/05/28 10:25:38;;;;;;;4.00;1.23;;;;;;;20.12;45.46;100510.50;4868878;28;96895;-86
2021/05/28 10:28:15;;;;;;;2.20;1.10;;;;;;;20.12;45.99;100517.66;4874593;28;98009;-85
2021/05/28 10:30:43;;;;;;;2.25;1.65;;;;;;;20.30;46.13;100519.03;4864012;28;101603;-86
2021/05/28 10:33:28;;;;;;;3.40;1.35;;;;;;;20.37;45.30;100515.91;4875289;28;97847;-86
2021/05/28 10:35:56;;;;;;;2.33;1.15;;;;;;;20.49;44.78;100523.03;4889409;28;96934;-86
2021/05/28 10:38:34;;;;;;;3.30;1.30;;;;;;;20.32;44.40;100513.56;4877857;28;98496;-86
2021/05/28 10:40:59;;;;;;;1.48;1.10;;;;;;;20.22;44.93;100523.19;4903347;28;101790;-86
2021/05/28 10:43:26;;;;;;;1.75;1.10;;;;;;;20.03;45.60;100528.97;4913883;28;96782;-86
2021/05/28 10:46:08;;;;;;;1.67;1.15;;;;;;;20.07;44.35;100517.13;4897833;28;96889;-86
2021/05/28 10:48:37;;;;;;;1.75;1.02;;;;;;;20.16;44.13;100510.28;4866073;28;101729;-86
2021/05/28 10:51:04;;;;;;;4.82;1.23;;;;;;;20.27;43.13;100511.22;4877505;28;101395;-86
2021/05/28 10:53:29;;;;;;;6.05;1.45;;;;;;;20.34;43.34;100519.66;4875762;28;96894;-85
2021/05/28 10:56:09;;;;;;;1.30;1.20;;;;;;;20.75;43.27;100507.81;4875992;28;96804;-86
2021/05/28 10:59:03;;;;;;;3.85;1.15;;;;;;;20.99;43.39;100522.00;4871603;28;98323;-86
2021/05/28 11:01:34;;;;;;;3.95;1.33;;;;;;;21.11;42.97;100511.38;4873581;28;100171;-86
2021/05/28 11:04:03;;;;;;;3.70;1.25;;;;;;;21.04;43.28;100513.66;4878499;28;100399;-83
2021/05/28 11:06:30;;;;;;;2.45;1.38;;;;;;;20.95;43.50;100514.34;4862092;28;97191;-84
2021/05/28 11:09:06;;;;;;;2.65;1.10;;;;;;;21.07;43.78;100518.78;4868874;28;101668;-84
2021/05/28 11:11:43;;;;;;;2.38;1.55;;;;;;;20.96;43.32;100505.38;4842595;28;101515;-85
2021/05/28 11:14:11;;;;;;;1.90;1.30;;;;;;;21.00;43.86;100501.50;4873916;28;97090;-84
2021/05/28 11:16:48;;;;;;;1.42;0.85;;;;;;;20.83;44.05;100501.91;4860734;28;96660;-85
2021/05/28 11:19:32;;;;;;;1.67;1.25;;;;;;;20.55;43.66;100499.47;4875767;28;101893;-84
2021/05/28 11:21:59;;;;;;;2.65;1.60;;;;;;;19.97;44.70;100505.41;4843147;28;100068;-83
2021/05/28 11:24:51;;;;;;;4.85;1.30;;;;;;;19.53;46.36;100522.63;4859288;28;97003;-83
2021/05/28 11:27:20;;;;;;;6.72;1.50;;;;;;;19.22;48.83;100516.72;4874819;28;97413;-83
2021/05/28 11:29:47;;;;;;;2.30;1.65;;;;;;;19.01;49.48;100511.00;4875190;28;98582;-82
2021/05/28 11:32:31;;;;;;;2.40;2.00;;;;;;;18.77;49.40;100513.50;4843680;28;101024;-84
2021/05/28 11:35:29;;;;;;;5.60;1.20;;;;;;;18.65;48.48;100519.56;4859185;28;96626;-80
2021/05/28 11:38:00;;;;;;;4.78;1.20;;;;;;;18.66;47.25;100515.94;4874772;28;97141;-80
2021/05/28 11:40:38;;;;;;;1.10;0.95;;;;;;;18.95;47.08;100514.94;4861943;28;98169;-80
2021/05/28 11:43:15;;;;;;;3.53;0.85;;;;;;;19.30;48.07;100514.38;4861618;28;101485;-81
2021/05/28 11:45:42;;;;;;;1.55;0.90;;;;;;;19.58;47.00;100515.19;4862098;28;97072;-81